sensor_id;sensor_type;location;lat;lon;timestamp;P1;durP1;ratioP1;P2;durP2;ratioP2
6850;SDS011;3464;42.728;23.296;2024-01-15T00:00:04;245.17;;;125.30;;
6850;SDS011;3464;42.728;23.296;2024-01-15T00:02:32;272.50;;;131.37;;
6850;SDS011;3464;42.728;23.296;2024-01-15T00:04:59;279.07;;;134.60;;
6850;SDS011;3464;42.728;23.296;2024-01-15T00:07:25;266.93;;;130.00;;
6850;SDS011;3464;42.728;23.296;2024-01-15T00:09:52;262.33;;;131.67;;
6850;SDS011;3464;42.728;23.296;2024-01-15T00:12:18;255.23;;;125.60;;
6850;SDS011;3464;42.728;23.296;2024-01-15T00:14:45;229.13;;;118.70;;
6850;SDS011;3464;42.728;23.296;2024-01-15T00:17:11;245.87;;;126.93;;
6850;SDS011;3464;42.728;23.296;2024-01-15T00:19:38;242.40;;;125.53;;
6850;SDS011;3464;42.728;23.296;2024-01-15T00:22:05;249.50;;;123.70;;
6850;SDS011;3464;42.728;23.296;2024-01-15T00:24:32;256.27;;;127.83;;
6850;SDS011;3464;42.728;23.296;2024-01-15T00:26:58;251.27;;;129.00;;
6850;SDS011;3464;42.728;23.296;2024-01-15T00:29:25;244.20;;;124.17;;
6850;SDS011;3464;42.728;23.296;2024-01-15T00:31:51;243.90;;;126.60;;
6850;SDS011;3464;42.728;23.296;2024-01-15T00:34:20;243.33;;;121.60;;
6850;SDS011;3464;42.728;23.296;2024-01-15T00:36:46;237.73;;;117.53;;
6850;SDS011;3464;42.728;23.296;2024-01-15T00:39:13;225.90;;;117.40;;
6850;SDS011;3464;42.728;23.296;2024-01-15T00:41:39;238.20;;;122.93;;
6850;SDS011;3464;42.728;23.296;2024-01-15T00:44:06;233.83;;;114.63;;
6850;SDS011;3464;42.728;23.296;2024-01-15T00:46:32;232.40;;;115.37;;
6850;SDS011;3464;42.728;23.296;2024-01-15T00:48:59;236.73;;;122.60;;
6850;SDS011;3464;42.728;23.296;2024-01-15T00:51:25;235.73;;;117.20;;
6850;SDS011;3464;42.728;23.296;2024-01-15T00:53:52;241.70;;;120.10;;
6850;SDS011;3464;42.728;23.296;2024-01-15T00:56:19;207.97;;;107.90;;
6850;SDS011;3464;42.728;23.296;2024-01-15T00:58:45;239.37;;;116.70;;
6850;SDS011;3464;42.728;23.296;2024-01-15T01:01:12;243.77;;;118.80;;
6850;SDS011;3464;42.728;23.296;2024-01-15T01:03:38;222.40;;;110.47;;
6850;SDS011;3464;42.728;23.296;2024-01-15T01:06:05;233.57;;;123.00;;
6850;SDS011;3464;42.728;23.296;2024-01-15T01:08:31;221.67;;;111.90;;
6850;SDS011;3464;42.728;23.296;2024-01-15T01:10:58;214.40;;;110.13;;
6850;SDS011;3464;42.728;23.296;2024-01-15T01:13:24;238.67;;;122.00;;
6850;SDS011;3464;42.728;23.296;2024-01-15T01:15:51;242.77;;;121.27;;
6850;SDS011;3464;42.728;23.296;2024-01-15T01:18:17;250.27;;;123.07;;
6850;SDS011;3464;42.728;23.296;2024-01-15T01:20:44;231.73;;;121.87;;
6850;SDS011;3464;42.728;23.296;2024-01-15T01:23:11;223.87;;;118.43;;
6850;SDS011;3464;42.728;23.296;2024-01-15T01:25:37;217.10;;;111.30;;
6850;SDS011;3464;42.728;23.296;2024-01-15T01:28:04;228.77;;;110.43;;
6850;SDS011;3464;42.728;23.296;2024-01-15T01:30:30;225.20;;;107.83;;
6850;SDS011;3464;42.728;23.296;2024-01-15T01:32:57;221.33;;;109.33;;
6850;SDS011;3464;42.728;23.296;2024-01-15T01:35:24;213.63;;;103.37;;
6850;SDS011;3464;42.728;23.296;2024-01-15T01:37:50;202.47;;;104.43;;
6850;SDS011;3464;42.728;23.296;2024-01-15T01:40:18;226.20;;;111.60;;
6850;SDS011;3464;42.728;23.296;2024-01-15T01:42:44;223.50;;;109.63;;
6850;SDS011;3464;42.728;23.296;2024-01-15T01:45:11;220.13;;;110.27;;
6850;SDS011;3464;42.728;23.296;2024-01-15T01:47:38;213.90;;;109.57;;
6850;SDS011;3464;42.728;23.296;2024-01-15T01:50:05;229.20;;;110.97;;
6850;SDS011;3464;42.728;23.296;2024-01-15T01:52:32;221.80;;;113.03;;
6850;SDS011;3464;42.728;23.296;2024-01-15T01:54:58;217.77;;;108.27;;
6850;SDS011;3464;42.728;23.296;2024-01-15T01:57:25;210.53;;;110.97;;
6850;SDS011;3464;42.728;23.296;2024-01-15T01:59:51;234.90;;;110.10;;
6850;SDS011;3464;42.728;23.296;2024-01-15T02:02:18;217.33;;;108.33;;
6850;SDS011;3464;42.728;23.296;2024-01-15T02:04:44;212.37;;;110.20;;
6850;SDS011;3464;42.728;23.296;2024-01-15T02:07:11;214.50;;;107.40;;
6850;SDS011;3464;42.728;23.296;2024-01-15T02:09:38;211.00;;;105.10;;
6850;SDS011;3464;42.728;23.296;2024-01-15T02:12:05;203.47;;;101.37;;
6850;SDS011;3464;42.728;23.296;2024-01-15T02:14:32;184.63;;;91.60;;
6850;SDS011;3464;42.728;23.296;2024-01-15T02:16:59;175.60;;;87.30;;
6850;SDS011;3464;42.728;23.296;2024-01-15T02:19:26;187.47;;;94.53;;
6850;SDS011;3464;42.728;23.296;2024-01-15T02:21:52;171.30;;;85.33;;
6850;SDS011;3464;42.728;23.296;2024-01-15T02:24:19;175.77;;;90.53;;
6850;SDS011;3464;42.728;23.296;2024-01-15T02:26:45;190.97;;;92.17;;
6850;SDS011;3464;42.728;23.296;2024-01-15T02:29:13;182.03;;;86.90;;
6850;SDS011;3464;42.728;23.296;2024-01-15T02:31:39;180.33;;;93.03;;
6850;SDS011;3464;42.728;23.296;2024-01-15T02:34:06;185.27;;;93.90;;
6850;SDS011;3464;42.728;23.296;2024-01-15T02:36:33;180.07;;;88.13;;
6850;SDS011;3464;42.728;23.296;2024-01-15T02:38:59;174.57;;;88.20;;
6850;SDS011;3464;42.728;23.296;2024-01-15T02:41:26;177.23;;;89.40;;
6850;SDS011;3464;42.728;23.296;2024-01-15T02:43:52;183.27;;;88.57;;
6850;SDS011;3464;42.728;23.296;2024-01-15T02:46:19;173.50;;;87.97;;
6850;SDS011;3464;42.728;23.296;2024-01-15T02:48:45;182.07;;;86.57;;
6850;SDS011;3464;42.728;23.296;2024-01-15T02:51:12;179.97;;;87.57;;
6850;SDS011;3464;42.728;23.296;2024-01-15T02:53:38;171.07;;;85.60;;
6850;SDS011;3464;42.728;23.296;2024-01-15T02:56:06;166.73;;;83.67;;
6850;SDS011;3464;42.728;23.296;2024-01-15T02:58:32;160.53;;;82.17;;
6850;SDS011;3464;42.728;23.296;2024-01-15T03:00:59;159.30;;;80.40;;
6850;SDS011;3464;42.728;23.296;2024-01-15T03:03:25;164.77;;;82.00;;
6850;SDS011;3464;42.728;23.296;2024-01-15T03:05:52;154.93;;;78.13;;
6850;SDS011;3464;42.728;23.296;2024-01-15T03:08:18;143.60;;;74.57;;
6850;SDS011;3464;42.728;23.296;2024-01-15T03:10:45;147.97;;;76.63;;
6850;SDS011;3464;42.728;23.296;2024-01-15T03:13:12;147.90;;;74.47;;
6850;SDS011;3464;42.728;23.296;2024-01-15T03:15:39;147.23;;;76.57;;
6850;SDS011;3464;42.728;23.296;2024-01-15T03:18:06;156.83;;;76.70;;
6850;SDS011;3464;42.728;23.296;2024-01-15T03:20:32;141.60;;;73.60;;
6850;SDS011;3464;42.728;23.296;2024-01-15T03:22:59;146.47;;;75.50;;
6850;SDS011;3464;42.728;23.296;2024-01-15T03:25:25;147.07;;;76.20;;
6850;SDS011;3464;42.728;23.296;2024-01-15T03:27:52;149.23;;;76.40;;
6850;SDS011;3464;42.728;23.296;2024-01-15T03:30:18;132.30;;;64.13;;
6850;SDS011;3464;42.728;23.296;2024-01-15T03:32:45;116.27;;;61.13;;
6850;SDS011;3464;42.728;23.296;2024-01-15T03:35:13;147.33;;;73.90;;
6850;SDS011;3464;42.728;23.296;2024-01-15T03:37:40;136.53;;;68.70;;
6850;SDS011;3464;42.728;23.296;2024-01-15T03:40:07;146.07;;;70.80;;
6850;SDS011;3464;42.728;23.296;2024-01-15T03:42:34;138.43;;;70.23;;
6850;SDS011;3464;42.728;23.296;2024-01-15T03:45:01;132.97;;;67.83;;
6850;SDS011;3464;42.728;23.296;2024-01-15T03:47:28;128.20;;;63.40;;
6850;SDS011;3464;42.728;23.296;2024-01-15T03:49:55;119.20;;;58.90;;
6850;SDS011;3464;42.728;23.296;2024-01-15T03:52:23;114.80;;;57.43;;
6850;SDS011;3464;42.728;23.296;2024-01-15T03:54:53;114.53;;;57.43;;
6850;SDS011;3464;42.728;23.296;2024-01-15T03:57:21;116.23;;;60.77;;
6850;SDS011;3464;42.728;23.296;2024-01-15T03:59:47;110.57;;;56.37;;
6850;SDS011;3464;42.728;23.296;2024-01-15T04:02:14;108.30;;;56.17;;
6850;SDS011;3464;42.728;23.296;2024-01-15T04:04:41;108.17;;;56.50;;
6850;SDS011;3464;42.728;23.296;2024-01-15T04:07:08;101.93;;;53.07;;
6850;SDS011;3464;42.728;23.296;2024-01-15T04:09:34;98.30;;;48.97;;
6850;SDS011;3464;42.728;23.296;2024-01-15T04:12:00;97.97;;;49.63;;
6850;SDS011;3464;42.728;23.296;2024-01-15T04:14:27;98.70;;;50.60;;
6850;SDS011;3464;42.728;23.296;2024-01-15T04:16:58;131.90;;;64.57;;
6850;SDS011;3464;42.728;23.296;2024-01-15T04:19:30;127.20;;;65.70;;
6850;SDS011;3464;42.728;23.296;2024-01-15T04:22:01;127.17;;;62.90;;
6850;SDS011;3464;42.728;23.296;2024-01-15T04:24:31;135.23;;;68.10;;
6850;SDS011;3464;42.728;23.296;2024-01-15T04:26:58;130.70;;;70.00;;
6850;SDS011;3464;42.728;23.296;2024-01-15T04:29:24;142.17;;;71.90;;
6850;SDS011;3464;42.728;23.296;2024-01-15T04:31:52;153.73;;;75.20;;
6850;SDS011;3464;42.728;23.296;2024-01-15T04:34:18;144.40;;;71.10;;
6850;SDS011;3464;42.728;23.296;2024-01-15T04:36:45;137.03;;;69.60;;
6850;SDS011;3464;42.728;23.296;2024-01-15T04:39:15;137.67;;;70.33;;
6850;SDS011;3464;42.728;23.296;2024-01-15T04:41:41;142.30;;;70.47;;
6850;SDS011;3464;42.728;23.296;2024-01-15T04:44:08;133.87;;;67.23;;
6850;SDS011;3464;42.728;23.296;2024-01-15T04:46:34;143.00;;;71.13;;
6850;SDS011;3464;42.728;23.296;2024-01-15T04:49:01;137.50;;;73.23;;
6850;SDS011;3464;42.728;23.296;2024-01-15T04:51:28;152.50;;;78.63;;
6850;SDS011;3464;42.728;23.296;2024-01-15T04:53:55;140.43;;;74.53;;
6850;SDS011;3464;42.728;23.296;2024-01-15T04:56:23;148.47;;;76.10;;
6850;SDS011;3464;42.728;23.296;2024-01-15T04:58:50;159.13;;;78.50;;
6850;SDS011;3464;42.728;23.296;2024-01-15T05:01:17;147.33;;;75.03;;
6850;SDS011;3464;42.728;23.296;2024-01-15T05:03:43;142.00;;;72.77;;
6850;SDS011;3464;42.728;23.296;2024-01-15T05:06:10;141.87;;;74.90;;
6850;SDS011;3464;42.728;23.296;2024-01-15T05:08:37;144.00;;;73.00;;
6850;SDS011;3464;42.728;23.296;2024-01-15T05:11:03;146.07;;;72.83;;
6850;SDS011;3464;42.728;23.296;2024-01-15T05:13:30;153.03;;;75.63;;
6850;SDS011;3464;42.728;23.296;2024-01-15T05:15:56;150.70;;;78.93;;
6850;SDS011;3464;42.728;23.296;2024-01-15T05:18:23;155.73;;;75.07;;
6850;SDS011;3464;42.728;23.296;2024-01-15T05:20:49;153.20;;;76.77;;
6850;SDS011;3464;42.728;23.296;2024-01-15T05:23:16;143.93;;;71.73;;
6850;SDS011;3464;42.728;23.296;2024-01-15T05:25:43;133.67;;;70.00;;
6850;SDS011;3464;42.728;23.296;2024-01-15T05:28:09;142.53;;;67.97;;
6850;SDS011;3464;42.728;23.296;2024-01-15T05:30:36;127.17;;;64.53;;
6850;SDS011;3464;42.728;23.296;2024-01-15T05:33:02;120.03;;;60.60;;
6850;SDS011;3464;42.728;23.296;2024-01-15T05:35:29;133.13;;;66.30;;
6850;SDS011;3464;42.728;23.296;2024-01-15T05:37:55;120.90;;;60.40;;
6850;SDS011;3464;42.728;23.296;2024-01-15T05:40:24;116.07;;;59.13;;
6850;SDS011;3464;42.728;23.296;2024-01-15T05:42:50;111.90;;;56.67;;
6850;SDS011;3464;42.728;23.296;2024-01-15T05:45:17;124.03;;;60.17;;
6850;SDS011;3464;42.728;23.296;2024-01-15T05:47:45;133.40;;;65.80;;
6850;SDS011;3464;42.728;23.296;2024-01-15T05:50:12;120.40;;;60.73;;
6850;SDS011;3464;42.728;23.296;2024-01-15T05:53:14;103.77;;;53.70;;
6850;SDS011;3464;42.728;23.296;2024-01-15T05:55:40;105.83;;;55.30;;
6850;SDS011;3464;42.728;23.296;2024-01-15T05:58:07;128.20;;;65.67;;
6850;SDS011;3464;42.728;23.296;2024-01-15T06:00:33;143.53;;;71.40;;
6850;SDS011;3464;42.728;23.296;2024-01-15T06:03:00;150.13;;;80.27;;
6850;SDS011;3464;42.728;23.296;2024-01-15T06:05:27;148.63;;;81.77;;
6850;SDS011;3464;42.728;23.296;2024-01-15T06:07:53;163.87;;;84.40;;
6850;SDS011;3464;42.728;23.296;2024-01-15T06:10:20;166.90;;;86.17;;
6850;SDS011;3464;42.728;23.296;2024-01-15T06:12:46;167.23;;;86.93;;
6850;SDS011;3464;42.728;23.296;2024-01-15T06:15:13;160.37;;;87.30;;
6850;SDS011;3464;42.728;23.296;2024-01-15T06:17:40;161.73;;;86.80;;
6850;SDS011;3464;42.728;23.296;2024-01-15T06:20:06;152.00;;;80.53;;
6850;SDS011;3464;42.728;23.296;2024-01-15T06:22:33;193.23;;;90.70;;
6850;SDS011;3464;42.728;23.296;2024-01-15T06:25:00;165.90;;;89.63;;
6850;SDS011;3464;42.728;23.296;2024-01-15T06:27:27;171.63;;;86.70;;
6850;SDS011;3464;42.728;23.296;2024-01-15T06:29:54;156.77;;;83.47;;
6850;SDS011;3464;42.728;23.296;2024-01-15T06:32:20;154.40;;;82.37;;
6850;SDS011;3464;42.728;23.296;2024-01-15T06:34:47;184.90;;;92.00;;
6850;SDS011;3464;42.728;23.296;2024-01-15T06:37:14;156.47;;;86.30;;
6850;SDS011;3464;42.728;23.296;2024-01-15T06:39:40;153.80;;;83.10;;
6850;SDS011;3464;42.728;23.296;2024-01-15T06:42:10;145.53;;;79.67;;
6850;SDS011;3464;42.728;23.296;2024-01-15T06:44:36;148.37;;;75.50;;
6850;SDS011;3464;42.728;23.296;2024-01-15T06:47:03;150.57;;;76.60;;
6850;SDS011;3464;42.728;23.296;2024-01-15T06:49:30;153.03;;;82.60;;
6850;SDS011;3464;42.728;23.296;2024-01-15T06:51:57;157.57;;;81.47;;
6850;SDS011;3464;42.728;23.296;2024-01-15T06:54:23;138.53;;;75.43;;
6850;SDS011;3464;42.728;23.296;2024-01-15T06:56:51;139.43;;;70.70;;
6850;SDS011;3464;42.728;23.296;2024-01-15T06:59:17;122.60;;;64.90;;
6850;SDS011;3464;42.728;23.296;2024-01-15T07:01:45;121.70;;;62.30;;
6850;SDS011;3464;42.728;23.296;2024-01-15T07:04:12;112.87;;;59.00;;
6850;SDS011;3464;42.728;23.296;2024-01-15T07:06:39;109.37;;;54.27;;
6850;SDS011;3464;42.728;23.296;2024-01-15T07:09:05;96.40;;;49.50;;
6850;SDS011;3464;42.728;23.296;2024-01-15T07:11:32;93.70;;;47.30;;
6850;SDS011;3464;42.728;23.296;2024-01-15T07:13:58;109.73;;;52.00;;
6850;SDS011;3464;42.728;23.296;2024-01-15T07:16:25;111.07;;;56.17;;
6850;SDS011;3464;42.728;23.296;2024-01-15T07:18:51;100.17;;;53.20;;
6850;SDS011;3464;42.728;23.296;2024-01-15T07:21:18;93.87;;;49.93;;
6850;SDS011;3464;42.728;23.296;2024-01-15T07:23:44;92.53;;;44.07;;
6850;SDS011;3464;42.728;23.296;2024-01-15T07:26:11;108.23;;;49.57;;
6850;SDS011;3464;42.728;23.296;2024-01-15T07:28:38;121.50;;;48.67;;
6850;SDS011;3464;42.728;23.296;2024-01-15T07:31:04;105.17;;;48.80;;
6850;SDS011;3464;42.728;23.296;2024-01-15T07:33:31;101.77;;;50.37;;
6850;SDS011;3464;42.728;23.296;2024-01-15T07:35:57;103.20;;;51.93;;
6850;SDS011;3464;42.728;23.296;2024-01-15T07:38:24;109.70;;;54.73;;
6850;SDS011;3464;42.728;23.296;2024-01-15T07:40:50;121.53;;;55.90;;
6850;SDS011;3464;42.728;23.296;2024-01-15T07:43:19;106.30;;;53.60;;
6850;SDS011;3464;42.728;23.296;2024-01-15T07:45:46;115.13;;;55.40;;
6850;SDS011;3464;42.728;23.296;2024-01-15T07:48:12;109.20;;;56.90;;
6850;SDS011;3464;42.728;23.296;2024-01-15T07:50:39;114.67;;;56.60;;
6850;SDS011;3464;42.728;23.296;2024-01-15T07:53:05;119.57;;;59.30;;
6850;SDS011;3464;42.728;23.296;2024-01-15T07:55:32;114.93;;;59.40;;
6850;SDS011;3464;42.728;23.296;2024-01-15T07:57:59;114.17;;;58.50;;
6850;SDS011;3464;42.728;23.296;2024-01-15T08:00:25;103.83;;;54.10;;
6850;SDS011;3464;42.728;23.296;2024-01-15T08:02:52;116.47;;;54.77;;
6850;SDS011;3464;42.728;23.296;2024-01-15T08:05:18;105.70;;;54.80;;
6850;SDS011;3464;42.728;23.296;2024-01-15T08:07:45;112.50;;;55.23;;
6850;SDS011;3464;42.728;23.296;2024-01-15T08:10:11;106.40;;;53.63;;
6850;SDS011;3464;42.728;23.296;2024-01-15T08:12:38;117.67;;;56.30;;
6850;SDS011;3464;42.728;23.296;2024-01-15T08:15:05;124.50;;;58.70;;
6850;SDS011;3464;42.728;23.296;2024-01-15T08:17:31;128.03;;;62.93;;
6850;SDS011;3464;42.728;23.296;2024-01-15T08:19:58;124.73;;;63.07;;
6850;SDS011;3464;42.728;23.296;2024-01-15T08:22:24;128.17;;;64.13;;
6850;SDS011;3464;42.728;23.296;2024-01-15T08:24:51;120.90;;;63.07;;
6850;SDS011;3464;42.728;23.296;2024-01-15T08:27:18;124.33;;;60.93;;
6850;SDS011;3464;42.728;23.296;2024-01-15T08:29:44;120.33;;;60.80;;
6850;SDS011;3464;42.728;23.296;2024-01-15T08:32:11;132.87;;;61.47;;
6850;SDS011;3464;42.728;23.296;2024-01-15T08:34:37;127.13;;;66.67;;
6850;SDS011;3464;42.728;23.296;2024-01-15T08:37:04;132.77;;;67.47;;
6850;SDS011;3464;42.728;23.296;2024-01-15T08:39:31;140.23;;;67.43;;
6850;SDS011;3464;42.728;23.296;2024-01-15T08:41:57;120.67;;;62.97;;
6850;SDS011;3464;42.728;23.296;2024-01-15T08:44:25;114.37;;;60.37;;
6850;SDS011;3464;42.728;23.296;2024-01-15T08:46:52;114.13;;;57.20;;
6850;SDS011;3464;42.728;23.296;2024-01-15T08:49:18;127.47;;;58.40;;
6850;SDS011;3464;42.728;23.296;2024-01-15T08:51:45;111.20;;;55.63;;
6850;SDS011;3464;42.728;23.296;2024-01-15T08:54:13;106.40;;;52.60;;
6850;SDS011;3464;42.728;23.296;2024-01-15T08:56:39;110.27;;;52.23;;
6850;SDS011;3464;42.728;23.296;2024-01-15T08:59:06;112.23;;;57.80;;
6850;SDS011;3464;42.728;23.296;2024-01-15T09:01:32;114.73;;;57.17;;
6850;SDS011;3464;42.728;23.296;2024-01-15T09:03:59;115.47;;;57.97;;
6850;SDS011;3464;42.728;23.296;2024-01-15T09:06:26;132.17;;;58.30;;
6850;SDS011;3464;42.728;23.296;2024-01-15T09:08:53;120.27;;;59.27;;
6850;SDS011;3464;42.728;23.296;2024-01-15T09:11:19;128.83;;;60.87;;
6850;SDS011;3464;42.728;23.296;2024-01-15T09:13:46;128.87;;;63.17;;
6850;SDS011;3464;42.728;23.296;2024-01-15T09:16:12;126.90;;;63.47;;
6850;SDS011;3464;42.728;23.296;2024-01-15T09:18:39;128.07;;;65.33;;
6850;SDS011;3464;42.728;23.296;2024-01-15T09:21:05;124.00;;;61.53;;
6850;SDS011;3464;42.728;23.296;2024-01-15T09:23:32;136.37;;;61.40;;
6850;SDS011;3464;42.728;23.296;2024-01-15T09:25:58;130.87;;;58.90;;
6850;SDS011;3464;42.728;23.296;2024-01-15T09:28:25;119.80;;;61.07;;
6850;SDS011;3464;42.728;23.296;2024-01-15T09:30:52;120.67;;;60.43;;
6850;SDS011;3464;42.728;23.296;2024-01-15T09:33:19;119.13;;;58.73;;
6850;SDS011;3464;42.728;23.296;2024-01-15T09:35:45;113.40;;;55.70;;
6850;SDS011;3464;42.728;23.296;2024-01-15T09:38:12;113.80;;;56.63;;
6850;SDS011;3464;42.728;23.296;2024-01-15T09:40:38;111.80;;;54.90;;
6850;SDS011;3464;42.728;23.296;2024-01-15T09:43:05;110.97;;;55.17;;
6850;SDS011;3464;42.728;23.296;2024-01-15T09:45:33;98.53;;;49.20;;
6850;SDS011;3464;42.728;23.296;2024-01-15T09:48:00;125.87;;;52.23;;
6850;SDS011;3464;42.728;23.296;2024-01-15T09:50:26;106.87;;;51.50;;
6850;SDS011;3464;42.728;23.296;2024-01-15T09:52:57;100.87;;;49.93;;
6850;SDS011;3464;42.728;23.296;2024-01-15T09:55:24;96.17;;;48.90;;
6850;SDS011;3464;42.728;23.296;2024-01-15T09:57:50;102.53;;;50.90;;
6850;SDS011;3464;42.728;23.296;2024-01-15T10:00:17;102.50;;;48.80;;
6850;SDS011;3464;42.728;23.296;2024-01-15T10:02:43;107.80;;;52.07;;
6850;SDS011;3464;42.728;23.296;2024-01-15T10:05:10;109.13;;;50.00;;
6850;SDS011;3464;42.728;23.296;2024-01-15T10:07:37;105.80;;;52.00;;
6850;SDS011;3464;42.728;23.296;2024-01-15T10:10:03;106.63;;;52.60;;
6850;SDS011;3464;42.728;23.296;2024-01-15T10:12:30;96.27;;;48.43;;
6850;SDS011;3464;42.728;23.296;2024-01-15T10:14:57;108.90;;;51.63;;
6850;SDS011;3464;42.728;23.296;2024-01-15T10:17:24;97.13;;;49.37;;
6850;SDS011;3464;42.728;23.296;2024-01-15T10:19:50;101.33;;;48.40;;
6850;SDS011;3464;42.728;23.296;2024-01-15T10:22:17;99.63;;;49.57;;
6850;SDS011;3464;42.728;23.296;2024-01-15T10:24:43;99.07;;;47.27;;
6850;SDS011;3464;42.728;23.296;2024-01-15T10:27:10;86.53;;;44.67;;
6850;SDS011;3464;42.728;23.296;2024-01-15T10:29:37;87.37;;;43.23;;
6850;SDS011;3464;42.728;23.296;2024-01-15T10:32:07;97.13;;;44.70;;
6850;SDS011;3464;42.728;23.296;2024-01-15T10:34:37;78.50;;;39.47;;
6850;SDS011;3464;42.728;23.296;2024-01-15T10:37:01;73.80;;;38.40;;
6850;SDS011;3464;42.728;23.296;2024-01-15T10:39:27;79.83;;;35.77;;
6850;SDS011;3464;42.728;23.296;2024-01-15T10:41:53;63.13;;;31.30;;
6850;SDS011;3464;42.728;23.296;2024-01-15T10:44:20;52.97;;;28.63;;
6850;SDS011;3464;42.728;23.296;2024-01-15T10:46:49;50.43;;;26.30;;
6850;SDS011;3464;42.728;23.296;2024-01-15T10:49:16;54.27;;;28.90;;
6850;SDS011;3464;42.728;23.296;2024-01-15T10:51:42;49.67;;;25.43;;
6850;SDS011;3464;42.728;23.296;2024-01-15T10:54:09;62.27;;;25.03;;
6850;SDS011;3464;42.728;23.296;2024-01-15T10:56:35;38.20;;;19.37;;
6850;SDS011;3464;42.728;23.296;2024-01-15T10:59:03;44.67;;;22.57;;
6850;SDS011;3464;42.728;23.296;2024-01-15T11:01:29;45.40;;;21.10;;
6850;SDS011;3464;42.728;23.296;2024-01-15T11:03:55;43.40;;;20.37;;
6850;SDS011;3464;42.728;23.296;2024-01-15T11:06:23;38.67;;;19.53;;
6850;SDS011;3464;42.728;23.296;2024-01-15T11:08:49;35.87;;;17.30;;
6850;SDS011;3464;42.728;23.296;2024-01-15T11:11:16;34.90;;;15.57;;
6850;SDS011;3464;42.728;23.296;2024-01-15T11:13:42;36.33;;;15.53;;
6850;SDS011;3464;42.728;23.296;2024-01-15T11:16:10;35.80;;;16.20;;
6850;SDS011;3464;42.728;23.296;2024-01-15T11:18:40;40.60;;;18.00;;
6850;SDS011;3464;42.728;23.296;2024-01-15T11:23:50;37.77;;;16.50;;
6850;SDS011;3464;42.728;23.296;2024-01-15T11:28:54;39.83;;;17.87;;
6850;SDS011;3464;42.728;23.296;2024-01-15T11:31:20;37.10;;;17.33;;
6850;SDS011;3464;42.728;23.296;2024-01-15T11:33:49;42.70;;;17.70;;
6850;SDS011;3464;42.728;23.296;2024-01-15T11:36:17;34.63;;;16.77;;
6850;SDS011;3464;42.728;23.296;2024-01-15T11:38:46;34.93;;;18.07;;
6850;SDS011;3464;42.728;23.296;2024-01-15T11:41:14;39.10;;;16.83;;
6850;SDS011;3464;42.728;23.296;2024-01-15T11:43:46;40.33;;;17.93;;
6850;SDS011;3464;42.728;23.296;2024-01-15T11:46:23;36.20;;;17.17;;
6850;SDS011;3464;42.728;23.296;2024-01-15T11:48:52;37.53;;;16.40;;
6850;SDS011;3464;42.728;23.296;2024-01-15T11:51:19;34.43;;;16.20;;
6850;SDS011;3464;42.728;23.296;2024-01-15T11:53:47;39.53;;;17.00;;
6850;SDS011;3464;42.728;23.296;2024-01-15T11:56:15;36.33;;;16.40;;
6850;SDS011;3464;42.728;23.296;2024-01-15T11:58:46;38.40;;;16.40;;
6850;SDS011;3464;42.728;23.296;2024-01-15T12:04:22;38.53;;;16.80;;
6850;SDS011;3464;42.728;23.296;2024-01-15T12:06:49;39.20;;;17.17;;
6850;SDS011;3464;42.728;23.296;2024-01-15T12:09:18;39.67;;;17.70;;
6850;SDS011;3464;42.728;23.296;2024-01-15T12:11:42;38.07;;;17.23;;
6850;SDS011;3464;42.728;23.296;2024-01-15T12:14:11;40.10;;;17.63;;
6850;SDS011;3464;42.728;23.296;2024-01-15T12:16:39;35.17;;;16.70;;
6850;SDS011;3464;42.728;23.296;2024-01-15T12:19:06;37.30;;;17.27;;
6850;SDS011;3464;42.728;23.296;2024-01-15T12:21:33;45.33;;;20.50;;
6850;SDS011;3464;42.728;23.296;2024-01-15T12:23:59;44.17;;;19.83;;
6850;SDS011;3464;42.728;23.296;2024-01-15T12:26:26;41.30;;;17.63;;
6850;SDS011;3464;42.728;23.296;2024-01-15T12:28:52;39.30;;;17.80;;
6850;SDS011;3464;42.728;23.296;2024-01-15T12:31:19;44.37;;;19.13;;
6850;SDS011;3464;42.728;23.296;2024-01-15T12:33:45;42.77;;;19.30;;
6850;SDS011;3464;42.728;23.296;2024-01-15T12:36:12;43.67;;;19.90;;
6850;SDS011;3464;42.728;23.296;2024-01-15T12:38:39;42.53;;;19.33;;
6850;SDS011;3464;42.728;23.296;2024-01-15T12:41:05;53.57;;;19.57;;
6850;SDS011;3464;42.728;23.296;2024-01-15T12:43:35;41.23;;;18.50;;
6850;SDS011;3464;42.728;23.296;2024-01-15T12:46:01;43.00;;;18.97;;
6850;SDS011;3464;42.728;23.296;2024-01-15T12:48:28;43.03;;;19.20;;
6850;SDS011;3464;42.728;23.296;2024-01-15T12:50:55;39.97;;;18.77;;
6850;SDS011;3464;42.728;23.296;2024-01-15T12:53:21;44.13;;;18.80;;
6850;SDS011;3464;42.728;23.296;2024-01-15T12:55:48;44.73;;;19.40;;
6850;SDS011;3464;42.728;23.296;2024-01-15T12:58:14;45.53;;;19.77;;
6850;SDS011;3464;42.728;23.296;2024-01-15T13:00:41;40.63;;;18.90;;
6850;SDS011;3464;42.728;23.296;2024-01-15T13:03:07;44.20;;;21.10;;
6850;SDS011;3464;42.728;23.296;2024-01-15T13:05:34;52.70;;;24.00;;
6850;SDS011;3464;42.728;23.296;2024-01-15T13:10:34;57.70;;;25.07;;
6850;SDS011;3464;42.728;23.296;2024-01-15T13:13:01;47.17;;;23.67;;
6850;SDS011;3464;42.728;23.296;2024-01-15T13:15:28;47.13;;;24.87;;
6850;SDS011;3464;42.728;23.296;2024-01-15T13:17:55;57.20;;;26.53;;
6850;SDS011;3464;42.728;23.296;2024-01-15T13:20:22;59.03;;;27.27;;
6850;SDS011;3464;42.728;23.296;2024-01-15T13:22:49;57.50;;;27.13;;
6850;SDS011;3464;42.728;23.296;2024-01-15T13:25:16;66.63;;;27.87;;
6850;SDS011;3464;42.728;23.296;2024-01-15T13:27:43;64.60;;;27.30;;
6850;SDS011;3464;42.728;23.296;2024-01-15T13:30:10;60.80;;;27.47;;
6850;SDS011;3464;42.728;23.296;2024-01-15T13:32:36;59.20;;;29.07;;
6850;SDS011;3464;42.728;23.296;2024-01-15T13:35:03;56.73;;;27.80;;
6850;SDS011;3464;42.728;23.296;2024-01-15T13:37:30;44.03;;;19.57;;
6850;SDS011;3464;42.728;23.296;2024-01-15T13:39:56;48.20;;;22.40;;
6850;SDS011;3464;42.728;23.296;2024-01-15T13:42:24;54.13;;;24.93;;
6850;SDS011;3464;42.728;23.296;2024-01-15T13:44:51;53.53;;;24.90;;
6850;SDS011;3464;42.728;23.296;2024-01-15T13:47:17;60.37;;;26.10;;
6850;SDS011;3464;42.728;23.296;2024-01-15T13:49:44;56.37;;;27.23;;
6850;SDS011;3464;42.728;23.296;2024-01-15T13:52:11;61.30;;;26.20;;
6850;SDS011;3464;42.728;23.296;2024-01-15T13:54:38;53.43;;;25.03;;
6850;SDS011;3464;42.728;23.296;2024-01-15T13:57:04;61.83;;;28.23;;
6850;SDS011;3464;42.728;23.296;2024-01-15T13:59:31;60.50;;;29.10;;
6850;SDS011;3464;42.728;23.296;2024-01-15T14:01:57;56.53;;;27.80;;
6850;SDS011;3464;42.728;23.296;2024-01-15T14:04:24;64.93;;;28.20;;
6850;SDS011;3464;42.728;23.296;2024-01-15T14:06:50;61.57;;;29.37;;
6850;SDS011;3464;42.728;23.296;2024-01-15T14:09:17;60.60;;;31.00;;
6850;SDS011;3464;42.728;23.296;2024-01-15T14:11:43;73.77;;;30.80;;
6850;SDS011;3464;42.728;23.296;2024-01-15T14:14:10;66.57;;;31.00;;
6850;SDS011;3464;42.728;23.296;2024-01-15T14:16:36;67.53;;;30.37;;
6850;SDS011;3464;42.728;23.296;2024-01-15T14:19:03;63.80;;;28.53;;
6850;SDS011;3464;42.728;23.296;2024-01-15T14:21:30;61.60;;;29.50;;
6850;SDS011;3464;42.728;23.296;2024-01-15T14:23:56;69.17;;;30.13;;
6850;SDS011;3464;42.728;23.296;2024-01-15T14:26:23;69.87;;;30.23;;
6850;SDS011;3464;42.728;23.296;2024-01-15T14:28:49;64.03;;;30.23;;
6850;SDS011;3464;42.728;23.296;2024-01-15T14:31:16;61.30;;;25.50;;